sensor_id;sensor_type;location;lat;lon;timestamp;pressure;altitude;pressure_sealevel;temperature;humidity
32875;BME280;40468;42.128;24.750;2023-03-16T00:00:24;98555.59;;;9.87;50.37
32875;BME280;40468;42.128;24.750;2023-03-16T00:01:57;98582.41;;;10.01;50.32
32875;BME280;40468;42.128;24.750;2023-03-16T00:03:29;98597.88;;;10.17;50.33
32875;BME280;40468;42.128;24.750;2023-03-16T00:05:01;98610.06;;;10.17;50.46
32875;BME280;40468;42.128;24.750;2023-03-16T00:06:31;98595.66;;;10.11;50.58
32875;BME280;40468;42.128;24.750;2023-03-16T00:08:04;98601.53;;;10.15;50.84
32875;BME280;40468;42.128;24.750;2023-03-16T00:09:36;98599.78;;;10.15;51.14
32875;BME280;40468;42.128;24.750;2023-03-16T00:11:10;98598.06;;;10.14;50.90
32875;BME280;40468;42.128;24.750;2023-03-16T00:12:42;98573.22;;;9.96;51.29
32875;BME280;40468;42.128;24.750;2023-03-16T00:14:16;98607.56;;;10.15;51.55
32875;BME280;40468;42.128;24.750;2023-03-16T00:15:50;98604.16;;;10.15;51.35
32875;BME280;40468;42.128;24.750;2023-03-16T00:17:22;98598.19;;;10.13;52.02
32875;BME280;40468;42.128;24.750;2023-03-16T00:18:54;98605.06;;;10.14;52.18
32875;BME280;40468;42.128;24.750;2023-03-16T00:20:28;98612.03;;;10.13;52.30
32875;BME280;40468;42.128;24.750;2023-03-16T00:21:59;98601.63;;;10.13;52.18
32875;BME280;40468;42.128;24.750;2023-03-16T00:23:32;98603.28;;;10.14;52.61
32875;BME280;40468;42.128;24.750;2023-03-16T00:25:06;98601.53;;;10.15;52.65
32875;BME280;40468;42.128;24.750;2023-03-16T00:26:38;98538.16;;;9.74;52.75
32875;BME280;40468;42.128;24.750;2023-03-16T00:28:09;98595.59;;;10.13;52.66
32875;BME280;40468;42.128;24.750;2023-03-16T00:29:45;98596.41;;;10.13;52.64
32875;BME280;40468;42.128;24.750;2023-03-16T00:31:17;98587.34;;;10.06;53.13
32875;BME280;40468;42.128;24.750;2023-03-16T00:32:49;98598.06;;;10.14;53.26
32875;BME280;40468;42.128;24.750;2023-03-16T00:34:23;98587.66;;;10.14;53.67
32875;BME280;40468;42.128;24.750;2023-03-16T00:35:55;98593.63;;;10.16;53.51
32875;BME280;40468;42.128;24.750;2023-03-16T00:37:32;98598.81;;;10.16;53.72
32875;BME280;40468;42.128;24.750;2023-03-16T00:39:04;98530.56;;;9.71;54.16
32875;BME280;40468;42.128;24.750;2023-03-16T00:40:36;98597.44;;;10.11;54.19
32875;BME280;40468;42.128;24.750;2023-03-16T00:42:09;98603.19;;;10.16;54.30
32875;BME280;40468;42.128;24.750;2023-03-16T00:43:41;98593.81;;;10.13;54.30
32875;BME280;40468;42.128;24.750;2023-03-16T00:45:16;98598.06;;;10.14;54.49
32875;BME280;40468;42.128;24.750;2023-03-16T00:46:48;98607.75;;;10.12;54.32
32875;BME280;40468;42.128;24.750;2023-03-16T00:48:18;98608.59;;;10.13;54.74
32875;BME280;40468;42.128;24.750;2023-03-16T00:49:54;98608.59;;;10.13;54.94
32875;BME280;40468;42.128;24.750;2023-03-16T00:51:26;98605.06;;;10.14;55.14
32875;BME280;40468;42.128;24.750;2023-03-16T00:52:59;98615.38;;;10.15;55.13
32875;BME280;40468;42.128;24.750;2023-03-16T00:54:31;98600.97;;;10.10;55.21
32875;BME280;40468;42.128;24.750;2023-03-16T00:56:04;98580.94;;;9.97;55.28
32875;BME280;40468;42.128;24.750;2023-03-16T00:57:36;98622.25;;;10.16;55.40
32875;BME280;40468;42.128;24.750;2023-03-16T00:59:08;98611.84;;;10.16;55.10
32875;BME280;40468;42.128;24.750;2023-03-16T01:00:43;98619.63;;;10.16;55.57
32875;BME280;40468;42.128;24.750;2023-03-16T01:02:17;98620.38;;;10.18;55.24
32875;BME280;40468;42.128;24.750;2023-03-16T01:03:52;98610.38;;;10.12;55.48
32875;BME280;40468;42.128;24.750;2023-03-16T01:05:25;98629.78;;;10.21;55.27
32875;BME280;40468;42.128;24.750;2023-03-16T01:06:57;98546.91;;;9.73;55.49
32875;BME280;40468;42.128;24.750;2023-03-16T01:08:28;98625.59;;;10.18;55.86
32875;BME280;40468;42.128;24.750;2023-03-16T01:10:03;98617.88;;;10.17;55.86
32875;BME280;40468;42.128;24.750;2023-03-16T01:11:35;98634.16;;;10.20;56.07
32875;BME280;40468;42.128;24.750;2023-03-16T01:13:07;98628.94;;;10.20;56.32
32875;BME280;40468;42.128;24.750;2023-03-16T01:14:38;98532.78;;;9.63;56.15
32875;BME280;40468;42.128;24.750;2023-03-16T01:16:12;98620.56;;;10.15;56.57
32875;BME280;40468;42.128;24.750;2023-03-16T01:17:44;98619.84;;;10.13;56.76
32875;BME280;40468;42.128;24.750;2023-03-16T01:19:16;98630.78;;;10.18;56.46
32875;BME280;40468;42.128;24.750;2023-03-16T01:20:47;98634.22;;;10.19;56.45
32875;BME280;40468;42.128;24.750;2023-03-16T01:22:20;98633.28;;;10.20;56.62
32875;BME280;40468;42.128;24.750;2023-03-16T01:23:51;98636.75;;;10.20;56.81
32875;BME280;40468;42.128;24.750;2023-03-16T01:25:24;98607.41;;;10.04;56.81
32875;BME280;40468;42.128;24.750;2023-03-16T01:26:55;98645.56;;;10.18;57.01
32875;BME280;40468;42.128;24.750;2023-03-16T01:28:30;98636.91;;;10.17;57.42
32875;BME280;40468;42.128;24.750;2023-03-16T01:30:04;98630.22;;;10.13;57.63
32875;BME280;40468;42.128;24.750;2023-03-16T01:31:37;98633.66;;;10.14;57.68
32875;BME280;40468;42.128;24.750;2023-03-16T01:33:08;98642.59;;;10.10;57.81
32875;BME280;40468;42.128;24.750;2023-03-16T01:34:40;98642.59;;;10.10;57.94
32875;BME280;40468;42.128;24.750;2023-03-16T01:36:13;98646.16;;;10.09;58.05
32875;BME280;40468;42.128;24.750;2023-03-16T01:37:45;98647.16;;;10.06;58.20
32875;BME280;40468;42.128;24.750;2023-03-16T01:39:17;98636.19;;;10.01;57.84
32875;BME280;40468;42.128;24.750;2023-03-16T01:40:48;98652.38;;;10.06;58.35
32875;BME280;40468;42.128;24.750;2023-03-16T01:42:21;98638.16;;;9.97;58.30
32875;BME280;40468;42.128;24.750;2023-03-16T01:43:53;98651.06;;;9.99;58.65
32875;BME280;40468;42.128;24.750;2023-03-16T01:47:45;98618.19;;;9.69;57.93
32875;BME280;40468;42.128;24.750;2023-03-16T01:49:18;98640.19;;;9.78;57.91
32875;BME280;40468;42.128;24.750;2023-03-16T01:50:54;98651.53;;;9.77;57.70
32875;BME280;40468;42.128;24.750;2023-03-16T01:52:27;98659.78;;;9.69;57.67
32875;BME280;40468;42.128;24.750;2023-03-16T01:54:06;98657.53;;;9.63;57.51
32875;BME280;40468;42.128;24.750;2023-03-16T01:55:39;98645.28;;;9.51;57.22
32875;BME280;40468;42.128;24.750;2023-03-16T01:57:14;98662.34;;;9.55;57.34
32875;BME280;40468;42.128;24.750;2023-03-16T01:58:47;98667.72;;;9.52;57.18
32875;BME280;40468;42.128;24.750;2023-03-16T02:00:21;98668.28;;;9.43;57.40
32875;BME280;40468;42.128;24.750;2023-03-16T02:02:01;98653.22;;;9.33;57.51
32875;BME280;40468;42.128;24.750;2023-03-16T02:03:35;98656.84;;;9.31;57.42
32875;BME280;40468;42.128;24.750;2023-03-16T02:05:11;98675.84;;;9.31;57.26
32875;BME280;40468;42.128;24.750;2023-03-16T02:06:44;98529.72;;;8.39;57.48
32875;BME280;40468;42.128;24.750;2023-03-16T02:08:16;98667.69;;;9.23;57.42
32875;BME280;40468;42.128;24.750;2023-03-16T02:09:51;98676.56;;;9.19;57.83
32875;BME280;40468;42.128;24.750;2023-03-16T02:11:24;98693.91;;;9.19;57.49
32875;BME280;40468;42.128;24.750;2023-03-16T02:12:55;98677.50;;;9.18;57.63
32875;BME280;40468;42.128;24.750;2023-03-16T02:14:28;98683.53;;;9.19;57.49
32875;BME280;40468;42.128;24.750;2023-03-16T02:15:59;98690.50;;;9.18;57.78
32875;BME280;40468;42.128;24.750;2023-03-16T02:17:33;98685.28;;;9.18;57.53
32875;BME280;40468;42.128;24.750;2023-03-16T02:19:11;98688.13;;;9.14;57.71
32875;BME280;40468;42.128;24.750;2023-03-16T02:20:49;98686.41;;;9.14;57.83
32875;BME280;40468;42.128;24.750;2023-03-16T02:22:22;98689.00;;;9.14;57.64
32875;BME280;40468;42.128;24.750;2023-03-16T02:23:54;98678.38;;;9.03;57.96
32875;BME280;40468;42.128;24.750;2023-03-16T02:25:29;98691.66;;;9.13;58.31
32875;BME280;40468;42.128;24.750;2023-03-16T02:27:07;98694.38;;;9.11;58.31
32875;BME280;40468;42.128;24.750;2023-03-16T02:28:45;98683.66;;;9.01;58.41
32875;BME280;40468;42.128;24.750;2023-03-16T02:30:22;98697.13;;;9.08;58.46
32875;BME280;40468;42.128;24.750;2023-03-16T02:31:54;98689.31;;;9.08;58.55
32875;BME280;40468;42.128;24.750;2023-03-16T02:33:27;98700.56;;;9.08;58.91
32875;BME280;40468;42.128;24.750;2023-03-16T02:35:01;98685.41;;;9.01;58.85
32875;BME280;40468;42.128;24.750;2023-03-16T02:36:33;98693.13;;;9.02;58.98
32875;BME280;40468;42.128;24.750;2023-03-16T02:38:07;98692.53;;;8.97;59.09
32875;BME280;40468;42.128;24.750;2023-03-16T02:39:39;98704.34;;;9.03;59.21
32875;BME280;40468;42.128;24.750;2023-03-16T02:41:15;98701.41;;;8.93;59.04
32875;BME280;40468;42.128;24.750;2023-03-16T02:42:52;98699.91;;;8.89;59.08
32875;BME280;40468;42.128;24.750;2023-03-16T02:44:26;98693.63;;;8.93;59.00
32875;BME280;40468;42.128;24.750;2023-03-16T02:46:05;98705.44;;;8.99;58.91
32875;BME280;40468;42.128;24.750;2023-03-16T02:47:39;98704.00;;;8.93;58.54
32875;BME280;40468;42.128;24.750;2023-03-16T02:49:15;98705.03;;;8.91;58.44
32875;BME280;40468;42.128;24.750;2023-03-16T02:50:51;98719.50;;;8.95;58.81
32875;BME280;40468;42.128;24.750;2023-03-16T02:52:23;98723.13;;;8.92;58.59
32875;BME280;40468;42.128;24.750;2023-03-16T02:53:55;98710.41;;;8.87;58.51
32875;BME280;40468;42.128;24.750;2023-03-16T02:55:27;98723.22;;;8.91;58.36
32875;BME280;40468;42.128;24.750;2023-03-16T02:56:59;98710.56;;;8.84;58.26
32875;BME280;40468;42.128;24.750;2023-03-16T02:58:31;98727.53;;;8.90;58.45
32875;BME280;40468;42.128;24.750;2023-03-16T03:00:04;98729.41;;;8.88;58.15
32875;BME280;40468;42.128;24.750;2023-03-16T03:01:43;98731.25;;;8.86;58.31
32875;BME280;40468;42.128;24.750;2023-03-16T03:03:13;98711.06;;;8.75;58.43
32875;BME280;40468;42.128;24.750;2023-03-16T03:04:45;98732.19;;;8.85;58.02
32875;BME280;40468;42.128;24.750;2023-03-16T03:06:17;98738.28;;;8.84;57.76
32875;BME280;40468;42.128;24.750;2023-03-16T03:07:49;98746.06;;;8.84;58.11
32875;BME280;40468;42.128;24.750;2023-03-16T03:09:21;98739.53;;;8.77;57.89
32875;BME280;40468;42.128;24.750;2023-03-16T03:10:53;98754.28;;;8.76;57.88
32875;BME280;40468;42.128;24.750;2023-03-16T03:12:25;98758.72;;;8.74;57.80
32875;BME280;40468;42.128;24.750;2023-03-16T03:13:57;98760.53;;;8.72;57.70
32875;BME280;40468;42.128;24.750;2023-03-16T03:15:28;98758.03;;;8.71;57.80
32875;BME280;40468;42.128;24.750;2023-03-16T03:17:02;98758.97;;;8.70;57.67
32875;BME280;40468;42.128;24.750;2023-03-16T03:18:34;98758.28;;;8.66;57.58
32875;BME280;40468;42.128;24.750;2023-03-16T03:20:05;98762.56;;;8.67;57.34
32875;BME280;40468;42.128;24.750;2023-03-16T03:21:43;98759.28;;;8.63;57.29
32875;BME280;40468;42.128;24.750;2023-03-16T03:23:15;98762.03;;;8.60;57.49
32875;BME280;40468;42.128;24.750;2023-03-16T03:24:47;98762.31;;;8.56;57.53
32875;BME280;40468;42.128;24.750;2023-03-16T03:26:19;98767.72;;;8.51;57.48
32875;BME280;40468;42.128;24.750;2023-03-16T03:27:51;98766.56;;;8.41;57.48
32875;BME280;40468;42.128;24.750;2023-03-16T03:29:25;98772.41;;;8.45;57.44
32875;BME280;40468;42.128;24.750;2023-03-16T03:31:04;98775.94;;;8.43;57.58
32875;BME280;40468;42.128;24.750;2023-03-16T03:32:38;98775.94;;;8.43;57.66
32875;BME280;40468;42.128;24.750;2023-03-16T03:34:09;98778.69;;;8.40;57.73
32875;BME280;40468;42.128;24.750;2023-03-16T03:35:41;98771.94;;;8.36;57.70
32875;BME280;40468;42.128;24.750;2023-03-16T03:37:13;98769.44;;;8.35;57.77
32875;BME280;40468;42.128;24.750;2023-03-16T03:38:45;98778.81;;;8.37;57.69
32875;BME280;40468;42.128;24.750;2023-03-16T03:40:20;98765.25;;;8.32;57.62
32875;BME280;40468;42.128;24.750;2023-03-16T03:41:52;98771.25;;;8.33;57.76
32875;BME280;40468;42.128;24.750;2023-03-16T03:43:24;98764.81;;;8.24;57.75
32875;BME280;40468;42.128;24.750;2023-03-16T03:44:56;98777.59;;;8.27;57.74
32875;BME280;40468;42.128;24.750;2023-03-16T03:46:26;98779.38;;;8.27;58.05
32875;BME280;40468;42.128;24.750;2023-03-16T03:48:00;98773.91;;;8.15;57.80
32875;BME280;40468;42.128;24.750;2023-03-16T03:49:32;98782.50;;;8.16;58.04
32875;BME280;40468;42.128;24.750;2023-03-16T03:51:04;98789.38;;;8.17;58.13
32875;BME280;40468;42.128;24.750;2023-03-16T03:52:36;98776.75;;;8.11;58.14
32875;BME280;40468;42.128;24.750;2023-03-16T03:54:08;98786.84;;;8.15;58.45
32875;BME280;40468;42.128;24.750;2023-03-16T03:55:40;98806.00;;;8.13;58.44
32875;BME280;40468;42.128;24.750;2023-03-16T03:57:12;98793.91;;;8.13;58.12
32875;BME280;40468;42.128;24.750;2023-03-16T03:58:44;98797.31;;;8.14;58.42
32875;BME280;40468;42.128;24.750;2023-03-16T04:00:16;98807.84;;;8.11;58.35
32875;BME280;40468;42.128;24.750;2023-03-16T04:01:50;98796.88;;;8.06;58.31
32875;BME280;40468;42.128;24.750;2023-03-16T04:03:24;98801.22;;;8.05;58.37
32875;BME280;40468;42.128;24.750;2023-03-16T04:04:56;98790.31;;;7.98;58.52
32875;BME280;40468;42.128;24.750;2023-03-16T04:06:28;98806.63;;;8.01;58.49
32875;BME280;40468;42.128;24.750;2023-03-16T04:08:00;98804.34;;;7.94;58.56
32875;BME280;40468;42.128;24.750;2023-03-16T04:09:32;98795.81;;;7.92;58.73
32875;BME280;40468;42.128;24.750;2023-03-16T04:11:04;98799.31;;;7.91;58.55
32875;BME280;40468;42.128;24.750;2023-03-16T04:12:37;98796.25;;;7.83;58.82
32875;BME280;40468;42.128;24.750;2023-03-16T04:14:09;98797.81;;;7.87;58.51
32875;BME280;40468;42.128;24.750;2023-03-16T04:15:41;98807.19;;;7.90;58.60
32875;BME280;40468;42.128;24.750;2023-03-16T04:17:16;98810.78;;;7.87;58.65
32875;BME280;40468;42.128;24.750;2023-03-16T04:18:49;98821.19;;;7.86;58.68
32875;BME280;40468;42.128;24.750;2023-03-16T04:20:21;98801.91;;;7.74;58.77
32875;BME280;40468;42.128;24.750;2023-03-16T04:21:53;98816.31;;;7.80;58.66
32875;BME280;40468;42.128;24.750;2023-03-16T04:23:24;98825.22;;;7.74;58.62
32875;BME280;40468;42.128;24.750;2023-03-16T04:24:56;98824.50;;;7.72;58.60
32875;BME280;40468;42.128;24.750;2023-03-16T04:26:28;98837.50;;;7.70;58.69
32875;BME280;40468;42.128;24.750;2023-03-16T04:27:59;98837.56;;;7.69;58.75
32875;BME280;40468;42.128;24.750;2023-03-16T04:29:31;98826.91;;;7.58;58.54
32875;BME280;40468;42.128;24.750;2023-03-16T04:31:07;98847.25;;;7.65;58.84
32875;BME280;40468;42.128;24.750;2023-03-16T04:32:38;98843.00;;;7.64;58.68
32875;BME280;40468;42.128;24.750;2023-03-16T04:34:12;98834.69;;;7.58;58.83
32875;BME280;40468;42.128;24.750;2023-03-16T04:35:44;98801.19;;;7.36;58.75
32875;BME280;40468;42.128;24.750;2023-03-16T04:37:16;98832.38;;;7.51;58.70
32875;BME280;40468;42.128;24.750;2023-03-16T04:38:49;98690.72;;;6.64;58.77
32875;BME280;40468;42.128;24.750;2023-03-16T04:40:21;98819.09;;;7.40;58.76
32875;BME280;40468;42.128;24.750;2023-03-16T04:41:53;98833.22;;;7.52;58.73
32875;BME280;40468;42.128;24.750;2023-03-16T04:43:24;98851.97;;;7.57;58.77
32875;BME280;40468;42.128;24.750;2023-03-16T04:44:55;98853.72;;;7.57;58.86
32875;BME280;40468;42.128;24.750;2023-03-16T04:46:27;98848.63;;;7.55;58.86
32875;BME280;40468;42.128;24.750;2023-03-16T04:47:59;98851.28;;;7.53;58.78
32875;BME280;40468;42.128;24.750;2023-03-16T04:49:32;98851.34;;;7.52;58.67
32875;BME280;40468;42.128;24.750;2023-03-16T04:51:03;98860.31;;;7.45;58.54
32875;BME280;40468;42.128;24.750;2023-03-16T04:52:35;98862.91;;;7.45;58.46
32875;BME280;40468;42.128;24.750;2023-03-16T04:54:07;98867.09;;;7.47;58.59
32875;BME280;40468;42.128;24.750;2023-03-16T04:55:39;98842.63;;;7.36;58.41
32875;BME280;40468;42.128;24.750;2023-03-16T04:57:11;98866.13;;;7.50;58.34
32875;BME280;40468;42.128;24.750;2023-03-16T04:58:43;98860.94;;;7.50;58.38
32875;BME280;40468;42.128;24.750;2023-03-16T05:00:14;98835.22;;;7.28;58.15
32875;BME280;40468;42.128;24.750;2023-03-16T05:01:48;98877.31;;;7.50;58.21
32875;BME280;40468;42.128;24.750;2023-03-16T05:03:21;98874.59;;;7.53;58.28
32875;BME280;40468;42.128;24.750;2023-03-16T05:04:54;98880.53;;;7.56;57.97
32875;BME280;40468;42.128;24.750;2023-03-16T05:06:26;98874.00;;;7.48;57.98
32875;BME280;40468;42.128;24.750;2023-03-16T05:07:58;98880.84;;;7.49;58.00
32875;BME280;40468;42.128;24.750;2023-03-16T05:09:31;98895.25;;;7.55;57.92
32875;BME280;40468;42.128;24.750;2023-03-16T05:11:03;98889.25;;;7.55;57.84
32875;BME280;40468;42.128;24.750;2023-03-16T05:12:35;98898.69;;;7.56;57.87
32875;BME280;40468;42.128;24.750;2023-03-16T05:14:07;98887.69;;;7.50;57.77
32875;BME280;40468;42.128;24.750;2023-03-16T05:15:38;98896.28;;;7.51;57.76
32875;BME280;40468;42.128;24.750;2023-03-16T05:17:11;98900.44;;;7.55;57.68
32875;BME280;40468;42.128;24.750;2023-03-16T05:18:44;98899.59;;;7.55;57.46
32875;BME280;40468;42.128;24.750;2023-03-16T05:20:17;98902.19;;;7.55;57.57
32875;BME280;40468;42.128;24.750;2023-03-16T05:21:51;98901.72;;;7.46;57.48
32875;BME280;40468;42.128;24.750;2023-03-16T05:23:23;98903.38;;;7.47;57.45
32875;BME280;40468;42.128;24.750;2023-03-16T05:24:55;98911.69;;;7.54;57.29
32875;BME280;40468;42.128;24.750;2023-03-16T05:26:27;98919.56;;;7.52;57.37
32875;BME280;40468;42.128;24.750;2023-03-16T05:27:59;98919.75;;;7.48;57.32
32875;BME280;40468;42.128;24.750;2023-03-16T05:29:31;98923.97;;;7.50;57.29
32875;BME280;40468;42.128;24.750;2023-03-16T05:31:04;98900.53;;;7.35;57.30
32875;BME280;40468;42.128;24.750;2023-03-16T05:32:36;98925.06;;;7.45;57.32
32875;BME280;40468;42.128;24.750;2023-03-16T05:34:08;98928.31;;;7.50;57.42
32875;BME280;40468;42.128;24.750;2023-03-16T05:35:41;98928.53;;;7.45;57.39
32875;BME280;40468;42.128;24.750;2023-03-16T05:37:12;98898.13;;;7.30;57.37
32875;BME280;40468;42.128;24.750;2023-03-16T05:38:44;98941.06;;;7.55;57.27
32875;BME280;40468;42.128;24.750;2023-03-16T05:40:17;98932.41;;;7.54;57.27
32875;BME280;40468;42.128;24.750;2023-03-16T05:41:52;98941.13;;;7.53;57.22
32875;BME280;40468;42.128;24.750;2023-03-16T05:43:25;98942.78;;;7.54;57.14
32875;BME280;40468;42.128;24.750;2023-03-16T05:44:58;98922.28;;;7.49;57.14
32875;BME280;40468;42.128;24.750;2023-03-16T05:46:31;98946.97;;;7.57;57.06
32875;BME280;40468;42.128;24.750;2023-03-16T05:48:03;98952.13;;;7.58;56.96
32875;BME280;40468;42.128;24.750;2023-03-16T05:49:35;98940.97;;;7.56;56.77
32875;BME280;40468;42.128;24.750;2023-03-16T05:51:09;98944.34;;;7.58;56.74
32875;BME280;40468;42.128;24.750;2023-03-16T05:52:43;98940.28;;;7.52;56.69
32875;BME280;40468;42.128;24.750;2023-03-16T05:54:16;98938.91;;;7.45;56.73
32875;BME280;40468;42.128;24.750;2023-03-16T05:55:50;98954.16;;;7.51;56.90
32875;BME280;40468;42.128;24.750;2023-03-16T05:57:23;98949.13;;;7.48;56.45
32875;BME280;40468;42.128;24.750;2023-03-16T05:58:55;98960.22;;;7.50;56.37
32875;BME280;40468;42.128;24.750;2023-03-16T06:00:27;98879.75;;;6.98;56.43
32875;BME280;40468;42.128;24.750;2023-03-16T06:01:59;98964.56;;;7.50;56.23
32875;BME280;40468;42.128;24.750;2023-03-16T06:03:31;98962.97;;;7.47;56.13
32875;BME280;40468;42.128;24.750;2023-03-16T06:05:04;98961.28;;;7.46;55.99
32875;BME280;40468;42.128;24.750;2023-03-16T06:06:38;98963.78;;;7.48;56.06
32875;BME280;40468;42.128;24.750;2023-03-16T06:08:10;98969.06;;;7.46;55.82
32875;BME280;40468;42.128;24.750;2023-03-16T06:09:42;98974.09;;;7.49;55.69
32875;BME280;40468;42.128;24.750;2023-03-16T06:11:13;98973.97;;;7.52;55.70
32875;BME280;40468;42.128;24.750;2023-03-16T06:12:45;98962.81;;;7.50;55.38
32875;BME280;40468;42.128;24.750;2023-03-16T06:14:16;98898.47;;;7.03;55.17
32875;BME280;40468;42.128;24.750;2023-03-16T06:15:48;98980.13;;;7.50;55.02
32875;BME280;40468;42.128;24.750;2023-03-16T06:17:20;98969.91;;;7.47;55.01
32875;BME280;40468;42.128;24.750;2023-03-16T06:18:52;98977.75;;;7.45;54.96
32875;BME280;40468;42.128;24.750;2023-03-16T06:20:25;98977.66;;;7.47;54.93
32875;BME280;40468;42.128;24.750;2023-03-16T06:21:59;98980.13;;;7.50;54.85
32875;BME280;40468;42.128;24.750;2023-03-16T06:23:31;98976.59;;;7.51;54.83
32875;BME280;40468;42.128;24.750;2023-03-16T06:25:04;98983.50;;;7.52;54.62
32875;BME280;40468;42.128;24.750;2023-03-16T06:26:36;98986.91;;;7.52;54.74
32875;BME280;40468;42.128;24.750;2023-03-16T06:28:09;98983.53;;;7.50;54.47
32875;BME280;40468;42.128;24.750;2023-03-16T06:29:40;98987.97;;;7.48;54.75
32875;BME280;40468;42.128;24.750;2023-03-16T06:31:12;98991.44;;;7.47;54.66
32875;BME280;40468;42.128;24.750;2023-03-16T06:32:44;98994.03;;;7.47;54.78
32875;BME280;40468;42.128;24.750;2023-03-16T06:34:16;98845.56;;;6.52;54.47
32875;BME280;40468;42.128;24.750;2023-03-16T06:35:49;99002.88;;;7.43;54.63
32875;BME280;40468;42.128;24.750;2023-03-16T06:37:22;98992.72;;;7.39;54.61
32875;BME280;40468;42.128;24.750;2023-03-16T06:38:54;99014.03;;;7.45;54.53
32875;BME280;40468;42.128;24.750;2023-03-16T06:40:26;99008.75;;;7.47;54.47
32875;BME280;40468;42.128;24.750;2023-03-16T06:41:58;98842.53;;;6.43;54.29
32875;BME280;40468;42.128;24.750;2023-03-16T06:43:30;99014.72;;;7.49;54.23
32875;BME280;40468;42.128;24.750;2023-03-16T06:45:03;99023.25;;;7.51;54.33
32875;BME280;40468;42.128;24.750;2023-03-16T06:46:35;99026.69;;;7.51;54.40
32875;BME280;40468;42.128;24.750;2023-03-16T06:48:06;99016.66;;;7.44;54.20
32875;BME280;40468;42.128;24.750;2023-03-16T06:49:39;99026.75;;;7.50;54.24
32875;BME280;40468;42.128;24.750;2023-03-16T06:51:11;99026.84;;;7.48;54.00
32875;BME280;40468;42.128;24.750;2023-03-16T06:52:44;99033.69;;;7.49;54.24
32875;BME280;40468;42.128;24.750;2023-03-16T06:54:16;99031.22;;;7.46;54.08
32875;BME280;40468;42.128;24.750;2023-03-16T06:55:48;99027.16;;;7.41;54.03
32875;BME280;40468;42.128;24.750;2023-03-16T06:57:20;99039.84;;;7.47;53.84
32875;BME280;40468;42.128;24.750;2023-03-16T06:58:52;99046.63;;;7.49;53.83
32875;BME280;40468;42.128;24.750;2023-03-16T07:00:24;99044.09;;;7.48;53.93
32875;BME280;40468;42.128;24.750;2023-03-16T07:01:56;99044.88;;;7.50;53.86
32875;BME280;40468;42.128;24.750;2023-03-16T07:03:28;99049.09;;;7.52;53.65
32875;BME280;40468;42.128;24.750;2023-03-16T07:05:00;99050.75;;;7.53;53.70
32875;BME280;40468;42.128;24.750;2023-03-16T07:06:32;99053.44;;;7.52;53.65
32875;BME280;40468;42.128;24.750;2023-03-16T07:08:06;99056.88;;;7.52;53.56
32875;BME280;40468;42.128;24.750;2023-03-16T07:09:39;99017.22;;;7.32;53.67
32875;BME280;40468;42.128;24.750;2023-03-16T07:11:11;99055.38;;;7.47;53.66
32875;BME280;40468;42.128;24.750;2023-03-16T07:12:44;99054.53;;;7.46;53.78
32875;BME280;40468;42.128;24.750;2023-03-16T07:14:16;99031.97;;;7.29;53.67
32875;BME280;40468;42.128;24.750;2023-03-16T07:15:49;99056.34;;;7.44;53.79
32875;BME280;40468;42.128;24.750;2023-03-16T07:17:22;99060.06;;;7.39;53.66
32875;BME280;40468;42.128;24.750;2023-03-16T07:18:54;98982.69;;;6.92;53.58
32875;BME280;40468;42.128;24.750;2023-03-16T07:20:26;99066.72;;;7.44;53.45
32875;BME280;40468;42.128;24.750;2023-03-16T07:22:01;99068.53;;;7.42;53.50
32875;BME280;40468;42.128;24.750;2023-03-16T07:23:34;99065.94;;;7.42;53.46
32875;BME280;40468;42.128;24.750;2023-03-16T07:25:07;99063.56;;;7.38;53.41
32875;BME280;40468;42.128;24.750;2023-03-16T07:26:40;99065.88;;;7.44;53.37
32875;BME280;40468;42.128;24.750;2023-03-16T07:28:12;99065.88;;;7.44;53.46
32875;BME280;40468;42.128;24.750;2023-03-16T07:29:44;99070.16;;;7.45;53.31
32875;BME280;40468;42.128;24.750;2023-03-16T07:31:16;99083.97;;;7.45;53.34
32875;BME280;40468;42.128;24.750;2023-03-16T07:32:48;99074.50;;;7.44;53.32
32875;BME280;40468;42.128;24.750;2023-03-16T07:34:21;99076.91;;;7.49;53.15
32875;BME280;40468;42.128;24.750;2023-03-16T07:35:53;99081.16;;;7.50;53.25
32875;BME280;40468;42.128;24.750;2023-03-16T07:37:24;99079.41;;;7.50;53.22
32875;BME280;40468;42.128;24.750;2023-03-16T07:38:58;99078.66;;;7.48;53.14
32875;BME280;40468;42.128;24.750;2023-03-16T07:40:30;99064.97;;;7.45;53.12
32875;BME280;40468;42.128;24.750;2023-03-16T07:42:04;99077.47;;;7.56;52.96
32875;BME280;40468;42.128;24.750;2023-03-16T07:43:36;99075.66;;;7.58;53.12
32875;BME280;40468;42.128;24.750;2023-03-16T07:45:09;99068.06;;;7.53;53.13
32875;BME280;40468;42.128;24.750;2023-03-16T07:46:41;99081.38;;;7.64;52.95
32875;BME280;40468;42.128;24.750;2023-03-16T07:48:13;99082.09;;;7.68;53.26
32875;BME280;40468;42.128;24.750;2023-03-16T07:49:45;99075.97;;;7.69;52.95
32875;BME280;40468;42.128;24.750;2023-03-16T07:51:17;99088.06;;;7.70;52.96
32875;BME280;40468;42.128;24.750;2023-03-16T07:52:51;99063.56;;;7.57;52.79
32875;BME280;40468;42.128;24.750;2023-03-16T07:54:25;99081.06;;;7.72;52.76
32875;BME280;40468;42.128;24.750;2023-03-16T07:55:57;99082.72;;;7.73;52.79
32875;BME280;40468;42.128;24.750;2023-03-16T07:57:29;99000.97;;;7.28;53.14
32875;BME280;40468;42.128;24.750;2023-03-16T07:59:02;99076.44;;;7.79;53.01
32875;BME280;40468;42.128;24.750;2023-03-16T08:00:34;99074.53;;;7.82;52.84
32875;BME280;40468;42.128;24.750;2023-03-16T08:02:10;99035.66;;;7.63;52.82
32875;BME280;40468;42.128;24.750;2023-03-16T08:03:43;99084.72;;;7.87;52.63
32875;BME280;40468;42.128;24.750;2023-03-16T08:05:15;99089.91;;;7.87;52.66
32875;BME280;40468;42.128;24.750;2023-03-16T08:06:47;99080.41;;;7.86;52.46
32875;BME280;40468;42.128;24.750;2023-03-16T08:08:19;99086.44;;;7.86;52.55
32875;BME280;40468;42.128;24.750;2023-03-16T08:09:53;99065.97;;;7.80;52.50
32875;BME280;40468;42.128;24.750;2023-03-16T08:11:25;99083.84;;;7.86;52.42